Time;durP1;ratioP1;P1;durP2;ratioP2;P2;SDS_P1;SDS_P2;PMS_P1;PMS_P2;Temp;Humidity;BMP_temperature;BMP_pressure;BME280_temperature;BME280_humidity;BME280_pressure;Samples;Min_cycle;Max_cycle;Signal;HPM_P1;HPM_P2
2022/01/11 00:01:41;;;;;;;2.90;1.60;;;;;;;18.13;52.89;100158.63;4978879;28;20341;-86
2022/01/11 00:04:07;;;;;;;2.13;1.25;;;;;;;18.09;53.00;100163.19;4978298;28;20041;-86
2022/01/11 00:06:42;;;;;;;2.58;1.33;;;;;;;18.11;52.87;100163.09;4978564;28;20046;-87
2022/01/11 00:09:19;;;;;;;2.55;1.48;;;;;;;18.10;52.84;100169.31;4978523;28;20022;-86
2022/01/11 00:11:46;;;;;;;3.22;1.60;;;;;;;18.10;52.88;100166.66;4978823;28;20368;-85
2022/01/11 00:14:11;;;;;;;3.47;1.52;;;;;;;18.10;52.81;100158.75;4979490;28;20535;-86
2022/01/11 00:16:37;;;;;;;2.35;1.30;;;;;;;18.10;52.73;100161.38;4996370;28;20113;-86
2022/01/11 00:19:06;;;;;;;3.17;1.50;;;;;;;18.09;52.96;100167.59;4995228;28;20092;-86
2022/01/11 00:21:33;;;;;;;2.47;1.25;;;;;;;18.11;53.05;100165.75;4995406;28;20036;-86
2022/01/11 00:26:42;;;;;;;2.40;1.38;;;;;;;18.08;52.86;100150.91;4995206;28;20041;-86
2022/01/11 00:29:08;;;;;;;2.90;1.35;;;;;;;18.07;52.95;100153.59;4994155;28;20113;-86
2022/01/11 00:31:33;;;;;;;2.40;1.20;;;;;;;18.06;53.11;100160.63;4978010;28;20023;-86
2022/01/11 00:34:01;;;;;;;2.30;1.30;;;;;;;18.07;52.87;100164.16;4994306;28;20065;-85
2022/01/11 00:36:40;;;;;;;2.28;1.20;;;;;;;18.07;52.66;100158.88;4995378;28;20475;-86
2022/01/11 00:39:05;;;;;;;2.13;1.40;;;;;;;18.03;53.01;100151.94;4977586;28;20034;-86
2022/01/11 00:41:31;;;;;;;2.50;1.42;;;;;;;18.05;53.01;100155.38;4995432;28;20416;-85
2022/01/11 00:43:56;;;;;;;3.20;1.52;;;;;;;18.06;52.63;100160.63;4995592;28;20034;-87
2022/01/11 00:46:22;;;;;;;2.75;1.40;;;;;;;18.05;52.62;100158.88;4997439;28;20038;-87
2022/01/11 00:48:47;;;;;;;2.80;1.33;;;;;;;18.05;52.71;100150.09;5001478;28;20026;-85
2022/01/11 00:51:13;;;;;;;2.50;1.20;;;;;;;18.04;52.91;100158.94;5000473;28;20488;-85
2022/01/11 00:53:40;;;;;;;3.15;1.67;;;;;;;18.04;52.86;100164.22;4984761;28;20448;-86
2022/01/11 00:56:06;;;;;;;2.63;1.40;;;;;;;18.00;52.91;100157.34;5002829;28;20022;-87
2022/01/11 00:58:31;;;;;;;2.72;1.50;;;;;;;18.04;52.84;100158.94;5001898;28;20033;-88
2022/01/11 01:00:57;;;;;;;2.33;1.40;;;;;;;18.05;52.68;100160.66;4983759;28;20112;-87
2022/01/11 01:03:23;;;;;;;2.22;1.10;;;;;;;18.01;52.79;100159.06;4983219;28;20041;-86
2022/01/11 01:05:49;;;;;;;2.58;1.38;;;;;;;18.01;52.73;100164.34;4970515;28;20054;-87
2022/01/11 01:08:14;;;;;;;2.83;1.60;;;;;;;18.02;52.88;100161.63;4962169;29;20418;-87
2022/01/11 01:10:45;;;;;;;2.53;1.27;;;;;;;18.03;52.93;100152.81;4976447;28;20023;-88
2022/01/11 01:13:17;;;;;;;2.80;1.38;;;;;;;17.98;52.96;100146.84;4975736;28;20051;-88
2022/01/11 01:15:47;;;;;;;2.00;1.10;;;;;;;18.01;53.06;100159.06;4976511;28;20110;-86
2022/01/11 01:18:15;;;;;;;2.47;1.10;;;;;;;17.98;52.89;100160.88;4975607;28;20027;-87
2022/01/11 01:20:42;;;;;;;2.55;1.27;;;;;;;18.02;52.87;100155.50;4974830;28;20445;-87
2022/01/11 01:23:07;;;;;;;1.92;1.20;;;;;;;17.97;53.03;100153.88;4959716;28;20065;-86
2022/01/11 01:25:33;;;;;;;2.42;1.30;;;;;;;18.00;52.81;100157.34;4974965;28;20114;-87
2022/01/11 01:27:59;;;;;;;2.83;1.30;;;;;;;17.98;52.84;100165.31;4975432;28;20023;-88
2022/01/11 01:30:25;;;;;;;2.45;1.30;;;;;;;17.95;52.71;100163.66;4962135;28;20033;-87
2022/01/11 01:32:52;;;;;;;1.90;1.15;;;;;;;17.96;52.75;100177.69;4959265;28;20034;-86
2022/01/11 01:35:20;;;;;;;2.95;1.48;;;;;;;17.96;52.93;100168.00;4974320;28;20034;-87
2022/01/11 01:37:46;;;;;;;1.85;1.13;;;;;;;17.98;52.92;100171.44;4959275;28;20025;-85
2022/01/11 01:40:13;;;;;;;2.13;1.30;;;;;;;17.97;52.60;100175.00;4974092;28;20023;-87
2022/01/11 01:42:40;;;;;;;2.45;1.40;;;;;;;17.94;52.67;100169.84;4973947;28;20053;-86
2022/01/11 01:45:06;;;;;;;2.15;1.40;;;;;;;17.92;52.79;100174.31;4974422;28;20031;-87
2022/01/11 01:47:32;;;;;;;2.42;1.20;;;;;;;17.90;52.92;100184.09;4958919;28;20019;-86
2022/01/11 01:49:57;;;;;;;2.22;1.30;;;;;;;17.94;52.98;100185.69;4973929;28;20034;-86
2022/01/11 01:52:24;;;;;;;2.80;1.50;;;;;;;17.93;52.70;100180.47;4973754;28;20027;-86
2022/01/11 01:54:52;;;;;;;2.70;1.58;;;;;;;17.92;52.99;100189.31;4957628;29;20050;-86
2022/01/11 01:57:17;;;;;;;2.13;1.15;;;;;;;17.90;52.83;100202.56;4973303;28;20038;-85
2022/01/11 01:59:43;;;;;;;2.25;1.10;;;;;;;17.90;52.82;100204.34;4958536;28;20023;-85
2022/01/11 02:02:10;;;;;;;2.53;1.42;;;;;;;17.87;52.98;100204.47;4958538;28;20063;-87
2022/01/11 02:04:36;;;;;;;2.15;1.23;;;;;;;17.89;52.86;100208.78;4959327;28;20027;-86
2022/01/11 02:07:11;;;;;;;2.97;1.63;;;;;;;17.87;52.74;100209.75;4979896;28;20033;-87
2022/01/11 02:09:36;;;;;;;2.40;1.33;;;;;;;17.90;52.68;100205.22;4997432;28;20428;-86
2022/01/11 02:12:02;;;;;;;2.35;1.33;;;;;;;17.90;52.77;100204.34;4979926;28;20052;-85
2022/01/11 02:14:28;;;;;;;2.90;1.40;;;;;;;17.89;52.88;100208.78;4995969;28;20061;-86
2022/01/11 02:16:56;;;;;;;2.47;1.63;;;;;;;17.88;52.92;100211.47;4996887;28;20093;-85
2022/01/11 02:19:21;;;;;;;2.72;1.27;;;;;;;17.87;52.81;100213.22;4995839;28;20490;-86
2022/01/11 02:21:47;;;;;;;2.95;1.52;;;;;;;17.88;52.88;100214.97;4979768;28;20050;-86
2022/01/11 02:24:13;;;;;;;2.35;1.35;;;;;;;17.84;52.86;100221.28;4979846;28;20364;-85
2022/01/11 02:26:38;;;;;;;3.17;1.30;;;;;;;17.86;52.75;100214.16;4995734;28;20564;-87
2022/01/11 02:29:04;;;;;;;2.50;1.33;;;;;;;17.84;52.88;100216.00;4995713;28;20068;-85
2022/01/11 02:31:29;;;;;;;2.00;1.30;;;;;;;17.84;52.86;100216.00;4995767;28;20019;-85
2022/01/11 02:33:58;;;;;;;2.47;1.55;;;;;;;17.82;52.93;100223.13;4995808;28;20026;-87
2022/01/11 02:36:30;;;;;;;2.95;1.55;;;;;;;17.82;52.80;100210.75;4996961;28;20463;-86
2022/01/11 02:38:57;;;;;;;2.83;1.48;;;;;;;17.81;53.14;100221.38;4995868;28;20030;-84
2022/01/11 02:41:27;;;;;;;2.17;1.38;;;;;;;17.82;52.66;100223.13;4979286;28;20022;-87
2022/01/11 02:43:56;;;;;;;2.63;1.40;;;;;;;17.81;52.80;100231.91;4996593;28;20018;-85
2022/01/11 02:46:23;;;;;;;2.60;1.40;;;;;;;17.83;52.72;100230.13;4979385;28;20014;-83
2022/01/11 02:48:51;;;;;;;2.40;1.20;;;;;;;17.81;53.04;100226.66;4995993;28;20027;-87
2022/01/11 02:51:17;;;;;;;3.00;1.42;;;;;;;17.83;52.85;100224.84;4980224;28;20022;-87
2022/01/11 02:53:50;;;;;;;2.83;1.50;;;;;;;17.81;52.75;100218.72;4996547;28;20022;-87
2022/01/11 02:56:18;;;;;;;1.95;1.10;;;;;;;17.81;52.72;100218.72;4996528;28;20352;-87
2022/01/11 02:58:44;;;;;;;2.28;1.15;;;;;;;17.79;52.62;100220.56;4996563;28;20050;-87
2022/01/11 03:01:11;;;;;;;2.10;1.20;;;;;;;17.80;52.71;100219.66;4997216;28;20026;-88
2022/01/11 03:03:38;;;;;;;1.60;1.00;;;;;;;17.78;52.87;100218.84;4979586;28;20030;-86
2022/01/11 03:06:05;;;;;;;2.60;1.30;;;;;;;17.81;52.65;100221.38;4996225;28;20057;-84
2022/01/11 03:08:33;;;;;;;2.40;1.30;;;;;;;17.76;52.84;100218.91;4978788;28;20045;-87
2022/01/11 03:11:00;;;;;;;2.47;1.30;;;;;;;17.78;52.63;100213.56;4995242;28;20026;-86
2022/01/11 03:13:26;;;;;;;2.53;1.17;;;;;;;17.77;52.82;100209.22;5002748;28;20030;-87
2022/01/11 03:15:53;;;;;;;2.35;1.30;;;;;;;17.79;52.83;100212.66;4981513;28;20379;-84
2022/01/11 03:18:20;;;;;;;2.95;1.20;;;;;;;17.74;52.65;100214.59;4978694;28;20026;-85
2022/01/11 03:20:48;;;;;;;3.20;1.50;;;;;;;17.78;52.82;100224.13;4978633;28;20033;-86
2022/01/11 03:23:16;;;;;;;2.42;1.38;;;;;;;17.76;52.90;100215.38;4978675;28;20022;-85
2022/01/11 03:25:42;;;;;;;1.83;1.17;;;;;;;17.75;52.71;100221.59;4995036;28;20033;-88
2022/01/11 03:28:09;;;;;;;2.60;1.40;;;;;;;17.77;53.02;100222.41;4995883;28;20105;-86
2022/01/11 03:30:35;;;;;;;2.72;1.30;;;;;;;17.75;52.90;100229.50;4979203;28;20018;-86
2022/01/11 03:33:00;;;;;;;2.45;1.20;;;;;;;17.74;53.00;100225.16;4994858;28;20360;-87
2022/01/11 03:35:28;;;;;;;2.13;1.40;;;;;;;17.75;52.89;100232.13;4978732;28;20036;-87
2022/01/11 03:37:53;;;;;;;2.17;1.10;;;;;;;17.72;52.72;100227.84;4995886;28;20038;-87
2022/01/11 03:40:24;;;;;;;2.10;1.30;;;;;;;17.73;52.75;100228.72;4994662;28;20092;-88
2022/01/11 03:42:50;;;;;;;2.40;1.40;;;;;;;17.73;52.85;100233.97;4995592;28;20062;-84
2022/01/11 03:45:17;;;;;;;2.85;1.65;;;;;;;17.71;52.71;100237.53;4978571;28;20061;-87
2022/01/11 03:47:43;;;;;;;2.80;1.45;;;;;;;17.70;52.71;100235.81;4995556;28;20511;-87
2022/01/11 03:50:10;;;;;;;1.75;1.08;;;;;;;17.69;52.57;100234.06;4996171;28;20061;-87
2022/01/11 03:52:38;;;;;;;2.35;1.30;;;;;;;17.71;52.73;100242.81;4998036;28;20023;-88
2022/01/11 03:55:11;;;;;;;2.70;1.30;;;;;;;17.66;52.91;100243.88;4983578;28;20022;-88
2022/01/11 03:57:38;;;;;;;2.33;1.25;;;;;;;17.69;52.67;100249.91;4998514;28;20030;-85
2022/01/11 04:00:08;;;;;;;1.58;1.08;;;;;;;17.68;52.69;100247.34;4994614;28;20041;-87
2022/01/11 04:02:34;;;;;;;2.22;1.30;;;;;;;17.67;52.68;100246.47;4994487;28;20065;-86
2022/01/11 04:05:00;;;;;;;2.45;1.20;;;;;;;17.68;52.76;100252.63;4978133;28;20102;-87
2022/01/11 04:07:27;;;;;;;2.03;1.25;;;;;;;17.70;52.72;100256.06;4994594;28;20496;-86
2022/01/11 04:09:54;;;;;;;3.55;1.55;;;;;;;17.70;52.54;100254.31;4995885;28;20038;-87
2022/01/11 04:12:21;;;;;;;2.00;1.10;;;;;;;17.70;52.85;100259.59;4995553;28;20022;-86
2022/01/11 04:14:47;;;;;;;2.22;1.40;;;;;;;17.68;52.59;100255.28;4994276;28;20572;-86
2022/01/11 04:17:14;;;;;;;2.83;1.20;;;;;;;17.67;52.77;100250.91;4978378;28;20053;-86
2022/01/11 04:19:39;;;;;;;1.60;1.20;;;;;;;17.66;52.75;100251.78;4978689;28;20034;-88
2022/01/11 04:22:05;;;;;;;2.03;1.17;;;;;;;17.62;52.88;100248.41;4982204;28;20033;-87
2022/01/11 04:24:31;;;;;;;2.00;1.23;;;;;;;17.65;52.76;100253.59;4999320;28;20038;-87
2022/01/11 04:26:57;;;;;;;1.92;1.13;;;;;;;17.64;52.76;100259.78;4998599;28;20038;-87
2022/01/11 04:29:23;;;;;;;2.22;1.20;;;;;;;17.64;52.84;100251.88;4982213;28;20022;-85
2022/01/11 04:31:49;;;;;;;1.90;1.10;;;;;;;17.62;52.83;100251.03;5000098;28;20113;-88
2022/01/11 04:34:14;;;;;;;1.83;1.02;;;;;;;17.64;52.90;100243.97;4988287;28;20023;-87
2022/01/11 04:36:40;;;;;;;2.00;1.20;;;;;;;17.63;52.71;100244.84;5009173;28;20018;-86
2022/01/11 04:39:09;;;;;;;2.10;1.17;;;;;;;17.64;52.88;100257.16;5010647;28;20053;-86
2022/01/11 04:41:35;;;;;;;2.15;1.08;;;;;;;17.64;52.64;100265.06;4992207;28;20363;-87
2022/01/11 04:44:02;;;;;;;1.95;0.98;;;;;;;17.61;52.78;100256.38;4992716;28;20427;-86
2022/01/11 04:46:28;;;;;;;1.80;1.10;;;;;;;17.62;52.87;100258.97;5009845;28;20094;-86
2022/01/11 04:48:54;;;;;;;2.90;1.38;;;;;;;17.61;52.91;100262.53;4993182;28;20026;-87
2022/01/11 04:51:21;;;;;;;2.75;1.30;;;;;;;17.59;52.96;100274.91;5009562;28;20034;-87
2022/01/11 04:53:50;;;;;;;2.20;1.27;;;;;;;17.61;52.77;100273.09;4995073;28;20026;-87
2022/01/11 04:56:16;;;;;;;2.25;1.42;;;;;;;17.61;52.62;100275.72;5009648;28;20400;-88
2022/01/11 04:58:42;;;;;;;2.05;1.20;;;;;;;17.59;52.66;100264.38;4994430;28;20050;-87
2022/01/11 05:01:07;;;;;;;2.20;1.10;;;;;;;17.61;52.71;100273.09;5009151;28;20033;-86
2022/01/11 05:03:33;;;;;;;2.83;1.38;;;;;;;17.62;52.46;100280.06;5003964;28;20096;-87
2022/01/11 05:06:00;;;;;;;2.17;1.23;;;;;;;17.61;52.73;100282.75;4987566;28;20050;-87
2022/01/11 05:08:25;;;;;;;2.15;1.10;;;;;;;17.59;52.75;100285.47;4987081;28;20109;-87
2022/01/11 05:10:51;;;;;;;1.65;1.00;;;;;;;17.60;52.52;100276.63;5003986;28;20054;-87
2022/01/11 05:13:18;;;;;;;1.83;1.02;;;;;;;17.61;52.45;100273.09;5002477;28;20062;-89
2022/01/11 05:15:45;;;;;;;2.08;1.00;;;;;;;17.60;52.79;100281.91;5003051;28;20041;-87
2022/01/11 05:18:11;;;;;;;2.25;1.27;;;;;;;17.61;52.99;100283.63;5002223;28;20061;-87
2022/01/11 05:20:38;;;;;;;1.75;1.02;;;;;;;17.60;52.78;100283.69;5003478;28;20387;-87
2022/01/11 05:23:04;;;;;;;2.53;1.30;;;;;;;17.58;52.75;100294.31;5002737;28;20026;-87
2022/01/11 05:25:31;;;;;;;2.20;1.08;;;;;;;17.59;52.52;100290.75;4985792;28;20056;-87
2022/01/11 05:27:59;;;;;;;2.80;1.40;;;;;;;17.55;52.81;100289.13;5003277;28;20026;-87
2022/01/11 05:30:25;;;;;;;2.03;1.08;;;;;;;17.55;52.74;100294.41;4985673;28;20045;-87
2022/01/11 05:32:52;;;;;;;2.38;1.30;;;;;;;17.57;52.47;100282.00;5001646;28;20029;-86
2022/01/11 05:35:19;;;;;;;1.70;0.98;;;;;;;17.58;52.83;100278.47;5003035;28;20100;-87
2022/01/11 05:37:44;;;;;;;2.05;1.05;;;;;;;17.57;52.75;100287.28;4985742;28;20463;-88
2022/01/11 05:40:11;;;;;;;2.47;1.30;;;;;;;17.55;52.83;100289.13;5002006;28;20026;-88
2022/01/11 05:42:41;;;;;;;2.05;1.00;;;;;;;17.55;52.62;100289.13;5002842;28;20034;-87
2022/01/11 05:45:07;;;;;;;1.60;1.08;;;;;;;17.56;52.77;100293.47;4985023;28;20045;-85
2022/01/11 05:47:34;;;;;;;2.90;1.58;;;;;;;17.59;52.72;100296.03;4984915;28;20034;-87
2022/01/11 05:50:01;;;;;;;2.17;1.17;;;;;;;17.55;52.69;100295.28;5000983;28;20038;-87
2022/01/11 05:52:27;;;;;;;3.15;1.27;;;;;;;17.55;52.71;100310.22;4985093;28;20040;-87
2022/01/11 05:54:53;;;;;;;2.10;1.10;;;;;;;17.55;52.55;100304.97;4985145;28;20097;-86
2022/01/11 05:57:19;;;;;;;2.78;1.30;;;;;;;17.53;52.65;100306.78;4996863;28;20038;-86
2022/01/11 05:59:44;;;;;;;2.88;1.48;;;;;;;17.54;52.66;100305.88;4996306;28;20466;-86
2022/01/11 06:02:10;;;;;;;2.10;1.17;;;;;;;17.51;52.65;100313.88;4997145;28;20092;-85
2022/01/11 06:04:36;;;;;;;2.20;1.15;;;;;;;17.57;52.66;100318.94;5001171;28;20034;-88
2022/01/11 06:07:02;;;;;;;2.42;1.25;;;;;;;17.54;52.62;100313.78;5000269;28;20026;-87
2022/01/11 06:09:28;;;;;;;3.97;2.05;;;;;;;17.51;52.54;100313.88;4985528;28;20030;-88
2022/01/11 06:11:56;;;;;;;2.28;1.30;;;;;;;17.51;52.86;100324.44;5002729;28;20093;-87
2022/01/11 06:14:22;;;;;;;2.30;1.42;;;;;;;17.53;52.72;100325.25;4986179;28;20416;-86
2022/01/11 06:16:48;;;;;;;3.10;1.30;;;;;;;17.50;52.47;100322.72;4983545;28;20026;-86
2022/01/11 06:19:14;;;;;;;2.85;1.40;;;;;;;17.50;52.87;100322.72;4982618;28;20444;-88
2022/01/11 06:21:40;;;;;;;3.10;1.40;;;;;;;17.50;52.78;100320.94;4998197;28;20448;-88
2022/01/11 06:24:06;;;;;;;1.95;1.25;;;;;;;17.47;52.80;100313.13;4986987;28;20022;-87
2022/01/11 06:26:31;;;;;;;2.40;1.48;;;;;;;17.47;52.56;100321.03;4998924;28;20026;-88
2022/01/11 06:28:57;;;;;;;2.38;1.40;;;;;;;17.47;52.63;100320.19;4999550;28;20522;-86
2022/01/11 06:31:24;;;;;;;2.80;1.38;;;;;;;17.47;52.50;100320.19;4983948;28;20133;-87
2022/01/11 06:33:49;;;;;;;2.97;1.50;;;;;;;17.47;52.67;100323.66;4983381;28;20053;-88
2022/01/11 06:36:15;;;;;;;2.75;1.60;;;;;;;17.47;52.64;100328.09;4983494;28;20045;-86
2022/01/11 06:38:42;;;;;;;1.98;1.27;;;;;;;17.45;52.51;100330.78;4999530;28;20415;-86
2022/01/11 06:41:09;;;;;;;2.33;1.40;;;;;;;17.45;52.81;100326.34;4982865;28;20057;-88
2022/01/11 06:43:36;;;;;;;2.75;1.30;;;;;;;17.45;52.75;100336.91;4982168;28;20041;-85
2022/01/11 06:46:03;;;;;;;2.45;1.40;;;;;;;17.44;52.47;100348.38;4983141;28;20417;-87
2022/01/11 06:48:28;;;;;;;2.58;1.40;;;;;;;17.44;52.71;100361.56;4983352;28;20503;-87
2022/01/11 06:50:54;;;;;;;2.17;1.30;;;;;;;17.43;52.48;100362.50;4999559;28;20072;-88
2022/01/11 06:53:20;;;;;;;2.45;1.20;;;;;;;17.44;52.61;100372.13;5000475;28;20073;-86
2022/01/11 06:55:45;;;;;;;2.70;1.48;;;;;;;17.47;52.46;100365.03;4983278;28;20022;-89
2022/01/11 06:58:11;;;;;;;2.75;1.35;;;;;;;17.43;52.65;100375.69;4999597;28;20029;-88
2022/01/11 07:00:37;;;;;;;1.85;1.10;;;;;;;17.43;52.63;100378.31;4982779;28;20034;-85
2022/01/11 07:03:02;;;;;;;2.50;1.30;;;;;;;17.43;52.38;100375.69;4982326;28;20022;-86
2022/01/11 07:05:28;;;;;;;2.72;1.40;;;;;;;17.44;52.51;100377.41;4971783;28;20069;-87
2022/01/11 07:07:53;;;;;;;3.00;1.42;;;;;;;17.42;52.41;100379.25;4960228;29;20373;-87
2022/01/11 07:10:19;;;;;;;2.03;1.20;;;;;;;17.42;52.45;100387.16;4975704;28;20520;-86
2022/01/11 07:12:45;;;;;;;2.95;1.55;;;;;;;17.44;52.55;100400.31;4975643;28;20023;-85
2022/01/11 07:15:11;;;;;;;3.35;1.70;;;;;;;17.39;52.38;100389.88;4959069;28;20031;-86
2022/01/11 07:17:37;;;;;;;2.53;1.35;;;;;;;17.40;52.74;100399.53;4959792;28;20094;-87
2022/01/11 07:20:05;;;;;;;2.33;1.30;;;;;;;17.38;52.67;100403.97;4958058;28;20032;-86
2022/01/11 07:22:31;;;;;;;3.35;1.70;;;;;;;17.41;52.57;100395.09;4972067;28;20019;-85
2022/01/11 07:24:56;;;;;;;2.65;1.40;;;;;;;17.41;52.46;100390.72;4957189;29;20522;-87
2022/01/11 07:27:23;;;;;;;2.67;1.67;;;;;;;17.38;52.46;100396.06;4972082;28;20031;-86
2022/01/11 07:29:49;;;;;;;3.47;1.60;;;;;;;17.38;52.56;100398.69;4956817;28;20023;-86
2022/01/11 07:32:14;;;;;;;2.42;1.33;;;;;;;17.38;52.46;100393.44;4972114;28;20026;-87
2022/01/11 07:34:40;;;;;;;2.63;1.45;;;;;;;17.39;52.64;100395.16;4959202;28;20023;-87
2022/01/11 07:37:06;;;;;;;2.65;1.50;;;;;;;17.37;52.81;100391.72;4976077;28;20461;-87
2022/01/11 07:39:32;;;;;;;2.35;1.40;;;;;;;17.35;52.80;100393.53;4975913;28;20063;-86
2022/01/11 07:41:58;;;;;;;2.78;1.30;;;;;;;17.35;52.72;100393.53;4960505;28;20059;-85
2022/01/11 07:44:24;;;;;;;2.60;1.50;;;;;;;17.37;52.56;100399.63;4959482;29;20031;-86
2022/01/11 07:46:52;;;;;;;3.13;1.73;;;;;;;17.35;52.67;100397.94;4975259;28;20126;-86
2022/01/11 07:49:18;;;;;;;2.03;1.13;;;;;;;17.37;52.60;100407.53;4975068;28;20035;-87
2022/01/11 07:51:44;;;;;;;1.60;1.10;;;;;;;17.37;52.70;100407.53;4958433;29;20479;-87
2022/01/11 07:54:10;;;;;;;3.22;1.52;;;;;;;17.33;52.70;100415.59;4957940;29;20030;-88
2022/01/11 07:56:35;;;;;;;3.15;1.30;;;;;;;17.35;52.54;100417.28;4973931;28;20397;-87
2022/01/11 07:59:01;;;;;;;2.88;1.63;;;;;;;17.34;52.62;100415.53;4957803;29;20019;-88
2022/01/11 08:01:27;;;;;;;2.22;1.20;;;;;;;17.33;52.66;100415.59;4973601;28;20476;-88
2022/01/11 08:03:52;;;;;;;2.53;1.45;;;;;;;17.34;52.77;100409.41;4973476;28;20026;-88
2022/01/11 08:06:18;;;;;;;2.47;1.20;;;;;;;17.36;52.50;100412.84;4973529;28;20389;-88
2022/01/11 08:08:44;;;;;;;2.30;1.45;;;;;;;17.33;52.45;100421.72;4957360;29;20051;-86
2022/01/11 08:11:10;;;;;;;2.40;1.30;;;;;;;17.34;52.70;100417.31;4973480;28;20026;-88
2022/01/11 08:13:36;;;;;;;2.92;1.30;;;;;;;17.33;52.55;100429.63;4972669;28;20473;-88
2022/01/11 08:16:02;;;;;;;2.22;1.20;;;;;;;17.34;52.46;100423.44;4955893;28;20445;-87
2022/01/11 08:18:28;;;;;;;2.42;1.30;;;;;;;17.31;52.70;100434.09;4956931;28;20042;-87
2022/01/11 08:20:53;;;;;;;2.33;1.20;;;;;;;17.29;52.53;100431.50;4956869;28;20031;-87
2022/01/11 08:23:19;;;;;;;2.40;1.40;;;;;;;17.30;52.64;100437.66;4972159;28;20350;-88
2022/01/11 08:25:45;;;;;;;2.67;1.30;;;;;;;17.32;52.74;100435.81;4955906;29;20035;-88
2022/01/11 08:28:10;;;;;;;3.47;1.58;;;;;;;17.32;52.56;100443.75;4971736;28;20110;-88
2022/01/11 08:30:37;;;;;;;2.55;1.40;;;;;;;17.30;52.87;100456.13;4957187;29;20027;-88
2022/01/11 08:33:04;;;;;;;2.92;1.50;;;;;;;17.32;52.83;100456.94;4956331;28;20470;-88
2022/01/11 08:35:31;;;;;;;2.10;1.30;;;;;;;17.30;52.95;100453.50;4972023;28;20420;-88
2022/01/11 08:37:58;;;;;;;2.92;1.50;;;;;;;17.30;52.73;100461.41;4956870;29;20027;-88
2022/01/11 08:40:24;;;;;;;2.75;1.40;;;;;;;17.28;52.75;100458.81;4956994;28;20361;-87
2022/01/11 08:42:50;;;;;;;2.53;1.52;;;;;;;17.29;52.73;100463.16;4971929;28;20019;-88
2022/01/11 08:45:16;;;;;;;3.65;1.50;;;;;;;17.29;52.54;100460.53;4972027;28;20028;-88
2022/01/11 08:47:41;;;;;;;2.70;1.45;;;;;;;17.28;52.88;100471.13;4972033;28;20066;-88
2022/01/11 08:50:11;;;;;;;2.90;1.50;;;;;;;17.28;52.69;100465.84;4957848;28;20042;-88
2022/01/11 08:52:37;;;;;;;3.10;1.40;;;;;;;17.27;52.46;100464.13;4956916;28;20019;-85
2022/01/11 08:55:03;;;;;;;3.20;1.30;;;;;;;17.24;52.66;100461.59;4955381;29;20350;-86
2022/01/11 08:57:29;;;;;;;2.92;1.60;;;;;;;17.28;52.73;100466.72;4971588;28;20034;-87
2022/01/11 08:59:55;;;;;;;3.63;1.58;;;;;;;17.27;52.63;100469.38;4956754;28;20027;-87
2022/01/11 09:02:21;;;;;;;3.08;1.80;;;;;;;17.27;52.64;100474.66;4958395;28;20027;-86
2022/01/11 09:04:48;;;;;;;2.60;1.27;;;;;;;17.26;52.85;100478.22;4976911;28;20485;-86
2022/01/11 09:07:14;;;;;;;2.08;1.30;;;;;;;17.28;52.58;100486.94;4981475;28;20033;-86
2022/01/11 09:09:39;;;;;;;4.40;1.75;;;;;;;17.28;52.68;100476.38;4999564;28;20391;-88
2022/01/11 09:12:08;;;;;;;3.53;1.48;;;;;;;17.29;52.88;100475.50;4984208;28;20054;-87
2022/01/11 09:14:34;;;;;;;2.55;1.52;;;;;;;17.27;52.56;100480.81;4999064;28;20022;-87
2022/01/11 09:17:02;;;;;;;1.90;1.40;;;;;;;17.27;52.80;100469.38;4982104;28;20030;-87
2022/01/11 09:19:29;;;;;;;2.60;1.60;;;;;;;17.26;52.78;100478.22;4998611;28;20113;-85
2022/01/11 09:21:54;;;;;;;2.15;1.35;;;;;;;17.28;52.67;100476.38;4983369;28;20026;-87
2022/01/11 09:24:20;;;;;;;2.75;1.30;;;;;;;17.26;52.81;100475.59;4983645;28;20096;-87
2022/01/11 09:26:47;;;;;;;3.08;1.45;;;;;;;17.26;52.53;100478.22;4999851;28;20029;-86
2022/01/11 09:29:14;;;;;;;3.13;1.42;;;;;;;17.26;52.62;100478.22;5000180;28;20023;-86
2022/01/11 09:31:39;;;;;;;2.72;1.50;;;;;;;17.24;52.84;100480.03;5001215;28;20022;-86
2022/01/11 09:34:05;;;;;;;2.88;1.60;;;;;;;17.26;52.69;100467.66;4999511;28;20367;-86
2022/01/11 09:36:31;;;;;;;3.25;1.45;;;;;;;17.25;52.44;100471.22;4983449;28;20072;-86
2022/01/11 09:38:57;;;;;;;3.13;1.67;;;;;;;17.23;52.79;100473.06;4999240;28;20029;-87
2022/01/11 09:41:22;;;;;;;2.80;1.40;;;;;;;17.27;52.74;100485.22;4983254;28;20026;-86
2022/01/11 09:43:48;;;;;;;2.33;1.40;;;;;;;17.24;52.90;100480.03;4982582;28;20030;-87
2022/01/11 09:46:14;;;;;;;1.52;1.02;;;;;;;17.23;52.83;100486.25;4982125;28;20022;-86
2022/01/11 09:48:41;;;;;;;2.90;1.48;;;;;;;17.24;52.77;100485.31;4997839;28;20056;-85
2022/01/11 09:51:06;;;;;;;3.65;1.40;;;;;;;17.23;52.77;100494.16;4999140;28;20026;-86
2022/01/11 09:53:32;;;;;;;2.88;1.40;;;;;;;17.23;52.86;100488.88;4998061;28;20027;-86
2022/01/11 09:56:03;;;;;;;3.72;1.50;;;;;;;17.23;52.64;100483.59;4999352;28;20026;-85
2022/01/11 09:58:28;;;;;;;3.75;1.50;;;;;;;17.24;52.64;100490.59;4982314;28;20026;-86
2022/01/11 10:00:54;;;;;;;2.53;1.50;;;;;;;17.23;52.54;100488.88;4982760;28;20085;-87
2022/01/11 10:03:20;;;;;;;4.18;1.90;;;;;;;17.24;52.78;100491.44;4997953;28;20104;-86
2022/01/11 10:05:46;;;;;;;3.13;1.60;;;;;;;17.23;52.67;100488.88;4996030;28;20070;-87
2022/01/11 10:08:26;;;;;;;3.50;1.90;;;;;;;17.24;52.35;100491.44;4997427;28;20069;-87
2022/01/11 10:10:52;;;;;;;2.60;1.48;;;;;;;17.23;52.36;100495.00;4979728;28;20041;-86
2022/01/11 10:13:37;;;;;;;3.38;1.45;;;;;;;17.22;52.70;100497.66;4997173;28;20109;-87
2022/01/11 10:16:37;;;;;;;2.53;1.27;;;;;;;17.26;52.76;100499.31;4997066;28;20041;-87
2022/01/11 10:19:03;;;;;;;1.77;1.20;;;;;;;17.25;52.58;100494.97;4902370;29;20039;-87
2022/01/11 10:21:35;;;;;;;2.55;1.50;;;;;;;17.23;52.58;100502.06;4979972;28;20077;-86
2022/01/11 10:24:35;;;;;;;2.22;1.30;;;;;;;17.23;52.86;100488.88;4997089;28;20026;-87
2022/01/11 10:27:05;;;;;;;3.17;1.70;;;;;;;17.25;52.33;100487.03;4980107;28;20026;-86
2022/01/11 10:29:41;;;;;;;4.60;1.65;;;;;;;17.23;52.69;100491.50;4979899;28;20030;-87
2022/01/11 10:32:12;;;;;;;2.28;1.25;;;;;;;17.23;52.59;100496.78;4997487;28;20101;-88
2022/01/11 10:34:39;;;;;;;2.38;1.33;;;;;;;17.23;52.79;100494.16;4980632;28;20097;-88
2022/01/11 10:37:06;;;;;;;2.38;1.42;;;;;;;17.20;52.76;100491.59;4996081;28;20026;-89
2022/01/11 10:39:44;;;;;;;2.30;1.40;;;;;;;17.24;52.35;100495.88;4996292;28;20026;-88
2022/01/11 10:42:28;;;;;;;2.85;1.48;;;;;;;17.20;52.48;100483.66;4995537;28;20037;-88
2022/01/11 10:44:58;;;;;;;4.68;1.58;;;;;;;17.21;52.67;100486.28;4979613;28;20026;-87
2022/01/11 10:47:40;;;;;;;2.33;1.20;;;;;;;17.18;52.72;100484.59;4979449;28;20022;-88
2022/01/11 10:50:39;;;;;;;3.42;1.40;;;;;;;17.17;52.89;100490.78;4979407;28;20483;-88
2022/01/11 10:53:25;;;;;;;3.10;1.50;;;;;;;17.21;52.37;100493.31;4965408;28;20026;-88
2022/01/11 10:55:56;;;;;;;2.72;1.42;;;;;;;17.18;52.37;100500.41;4979691;28;20126;-88
2022/01/11 10:58:23;;;;;;;3.17;1.55;;;;;;;17.22;52.47;100500.31;4995575;28;20376;-87
2022/01/11 11:00:53;;;;;;;2.95;1.40;;;;;;;17.18;52.63;100497.78;4979405;28;20026;-88
2022/01/11 11:03:22;;;;;;;2.85;1.45;;;;;;;17.22;52.39;100497.66;4996550;28;20049;-89
2022/01/11 11:05:50;;;;;;;2.55;1.33;;;;;;;17.21;52.37;100493.31;4995406;28;20058;-88
2022/01/11 11:08:35;;;;;;;2.33;1.33;;;;;;;17.20;52.63;100489.81;4995589;28;20355;-88
2022/01/11 11:11:03;;;;;;;3.15;1.40;;;;;;;17.20;52.32;100488.94;4995561;28;20030;-88
2022/01/11 11:13:33;;;;;;;2.28;1.05;;;;;;;17.17;52.49;100480.22;4995597;28;20034;-88
2022/01/11 11:16:20;;;;;;;2.70;1.23;;;;;;;17.18;52.42;100481.94;4979708;28;20030;-87
2022/01/11 11:18:52;;;;;;;2.10;1.33;;;;;;;17.18;52.59;100479.31;4997375;28;20026;-87
2022/01/11 11:21:25;;;;;;;2.55;1.15;;;;;;;17.16;52.50;100486.38;4980077;28;20375;-86
2022/01/11 11:23:55;;;;;;;2.60;1.42;;;;;;;17.17;52.83;100490.78;4980426;28;20038;-88
2022/01/11 11:26:24;;;;;;;2.30;1.20;;;;;;;17.17;52.48;100487.25;4979758;28;20361;-86
2022/01/11 11:28:51;;;;;;;2.78;1.40;;;;;;;17.18;52.53;100487.22;4994739;28;20129;-86